Goodwill — DSOW6 — position and weather

sailwx.info

Track history (hours):
 
Tides and Currents Weather Stations Pressure Air Temp Water Temp Dewpoint Dewpoint Depression Visibility Wind Speed Wind Dir Waves Ship Positions

Goodwill

Last reported at 2014-Aug-29 14:29 UTC. Time now 2014-Sep-20 20:00 UTC.
Position S 26°01' E 153°49'.
Warning: this ship's position is 22 days out of date.

Length 269 m; draft 15.2 m.

Type: Cargo ship. MMSI: 440541000.

Date/timePositionNaut miles runAvg speedWind from/ knotsBaromVisibWave heightAir tempDewpointWater temp
2014-Aug-29 14:29S 26°01' E 153°49'49 9.4
2014-Aug-29 09:15S 26°50' E 153°47'7 9.6
2014-Aug-29 08:31S 26°57' E 153°47'9 9.3
2014-Aug-29 07:33S 27°06' E 153°47'9 9.3
2014-Aug-29 06:33S 27°15' E 153°47'10 9.4
2014-Aug-29 05:33S 27°25' E 153°47'9 9.3
2014-Aug-29 04:33S 27°34' E 153°47'9 9.2
2014-Aug-29 03:33S 27°43' E 153°47'9 9.4
2014-Aug-29 02:33S 27°53' E 153°47'1010.1
2014-Aug-29 01:33S 28°03' E 153°47'272 8.5
2014-Aug-27 17:33S 32°28' E 152°37'7 7.0
2014-Aug-27 16:31S 32°34' E 152°32'8 8.5
2014-Aug-27 15:33S 32°40' E 152°25'9 8.6
2014-Aug-27 14:33S 32°45' E 152°17'9 8.8
2014-Aug-27 13:33S 32°51' E 152°09'9 8.7
2014-Aug-27 12:33S 32°55' E 152°00'8 8.3
2014-Aug-27 11:33S 32°56' E 151°50'4 3.8
2014-Aug-27 10:33S 32°54' E 151°46'1 0.0
2014-Aug-26 04:30S 32°53' E 151°45'0 0.0
2014-Aug-26 03:33S 32°53' E 151°45'3 3.0
2014-Aug-26 02:33S 32°55' E 151°47'7 6.6
2014-Aug-26 01:30S 32°58' E 151°55'5 5.9
2014-Aug-26 00:33S 32°58' E 152°01'5 5.1
2014-Aug-25 23:33S 32°56' E 152°07'5 4.7
2014-Aug-25 22:33S 32°52' E 152°08'1211.6
2014-Aug-25 21:33S 32°44' E 152°19'1111.5
2014-Aug-25 20:33S 32°36' E 152°29'1211.6
2014-Aug-25 19:33S 32°27' E 152°37'1212.1
2014-Aug-25 18:33S 32°16' E 152°42'1411.9
2014-Aug-25 17:22S 32°03' E 152°47'23812.0
2014-Aug-24 21:32S 28°11' E 153°48'1210.2
2014-Aug-24 20:21S 27°59' E 153°49'910.9
2014-Aug-24 19:33S 27°50' E 153°50'1211.6
2014-Aug-24 18:33S 27°38' E 153°52'2511.5
2014-Aug-24 16:23S 27°13' E 153°52'910.8
2014-Aug-24 15:33S 27°04' E 153°53'1110.5
2014-Aug-24 14:31S 26°54' E 153°54'10 9.7
2014-Aug-24 13:31S 26°44' E 153°54'28 9.4
2014-Aug-24 10:33S 26°16' E 153°54'11 9.2
2014-Aug-24 09:18S 26°04' E 153°54'  
Track history (hours):
 
Tides and Currents Weather Stations Pressure Air Temp Water Temp Dewpoint Dewpoint Depression Visibility Wind Speed Wind Dir Waves Ship Positions

Goodwill

Last reported at 2014-Aug-29 14:29 UTC. Time now 2014-Sep-20 20:00 UTC.
Position S 26°01' E 153°49'.
Warning: this ship's position is 22 days out of date.

Length 269 m; draft 15.2 m.

Type: Cargo ship. MMSI: 440541000.

Date/timePositionNaut miles runAvg speedWind from/ knotsBaromVisibWave heightAir tempDewpointWater temp
2014-Aug-29 14:29S 26°01' E 153°49'49 9.4
2014-Aug-29 09:15S 26°50' E 153°47'7 9.6
2014-Aug-29 08:31S 26°57' E 153°47'9 9.3
2014-Aug-29 07:33S 27°06' E 153°47'9 9.3
2014-Aug-29 06:33S 27°15' E 153°47'10 9.4
2014-Aug-29 05:33S 27°25' E 153°47'9 9.3
2014-Aug-29 04:33S 27°34' E 153°47'9 9.2
2014-Aug-29 03:33S 27°43' E 153°47'9 9.4
2014-Aug-29 02:33S 27°53' E 153°47'1010.1
2014-Aug-29 01:33S 28°03' E 153°47'272 8.5
2014-Aug-27 17:33S 32°28' E 152°37'7 7.0
2014-Aug-27 16:31S 32°34' E 152°32'8 8.5
2014-Aug-27 15:33S 32°40' E 152°25'9 8.6
2014-Aug-27 14:33S 32°45' E 152°17'9 8.8
2014-Aug-27 13:33S 32°51' E 152°09'9 8.7
2014-Aug-27 12:33S 32°55' E 152°00'8 8.3
2014-Aug-27 11:33S 32°56' E 151°50'4 3.8
2014-Aug-27 10:33S 32°54' E 151°46'1 0.0
2014-Aug-26 04:30S 32°53' E 151°45'0 0.0
2014-Aug-26 03:33S 32°53' E 151°45'3 3.0
2014-Aug-26 02:33S 32°55' E 151°47'7 6.6
2014-Aug-26 01:30S 32°58' E 151°55'5 5.9
2014-Aug-26 00:33S 32°58' E 152°01'5 5.1
2014-Aug-25 23:33S 32°56' E 152°07'5 4.7
2014-Aug-25 22:33S 32°52' E 152°08'1211.6
2014-Aug-25 21:33S 32°44' E 152°19'1111.5
2014-Aug-25 20:33S 32°36' E 152°29'1211.6
2014-Aug-25 19:33S 32°27' E 152°37'1212.1
2014-Aug-25 18:33S 32°16' E 152°42'1411.9
2014-Aug-25 17:22S 32°03' E 152°47'23812.0
2014-Aug-24 21:32S 28°11' E 153°48'1210.2
2014-Aug-24 20:21S 27°59' E 153°49'910.9
2014-Aug-24 19:33S 27°50' E 153°50'1211.6
2014-Aug-24 18:33S 27°38' E 153°52'2511.5
2014-Aug-24 16:23S 27°13' E 153°52'910.8
2014-Aug-24 15:33S 27°04' E 153°53'1110.5
2014-Aug-24 14:31S 26°54' E 153°54'10 9.7
2014-Aug-24 13:31S 26°44' E 153°54'28 9.4
2014-Aug-24 10:33S 26°16' E 153°54'11 9.2
2014-Aug-24 09:18S 26°04' E 153°54'  

Dump ship's entire track history